sensor_id;sensor_type;location;lat;lon;timestamp;pressure;altitude;pressure_sealevel;temperature;humidity
17764;BME280;22245;52.832;13.816;2023-11-19T00:02:03;101411.16;;;4.88;85.31
17764;BME280;22245;52.832;13.816;2023-11-19T00:05:25;101412.00;;;4.89;85.35
17764;BME280;22245;52.832;13.816;2023-11-19T00:08:48;101390.13;;;4.87;85.45
17764;BME280;22245;52.832;13.816;2023-11-19T00:12:10;101383.28;;;4.83;85.81
17764;BME280;22245;52.832;13.816;2023-11-19T00:15:34;101368.06;;;4.88;86.06
17764;BME280;22245;52.832;13.816;2023-11-19T00:18:56;101355.91;;;4.85;86.12
17764;BME280;22245;52.832;13.816;2023-11-19T00:22:18;101337.50;;;4.84;85.98
17764;BME280;22245;52.832;13.816;2023-11-19T00:25:42;101336.56;;;4.85;85.83
17764;BME280;22245;52.832;13.816;2023-11-19T00:29:04;101328.47;;;4.88;85.62
17764;BME280;22245;52.832;13.816;2023-11-19T00:32:28;101337.34;;;4.87;85.67
17764;BME280;22245;52.832;13.816;2023-11-19T00:35:50;101333.91;;;4.85;85.54
17764;BME280;22245;52.832;13.816;2023-11-19T00:39:11;101326.09;;;4.83;85.69
17764;BME280;22245;52.832;13.816;2023-11-19T00:42:36;101326.25;;;4.80;85.61
17764;BME280;22245;52.832;13.816;2023-11-19T00:47:07;101313.28;;;4.75;85.99
17764;BME280;22245;52.832;13.816;2023-11-19T00:50:31;101300.88;;;4.77;85.92
17764;BME280;22245;52.832;13.816;2023-11-19T00:53:58;101289.53;;;4.75;85.61
17764;BME280;22245;52.832;13.816;2023-11-19T00:57:19;101287.78;;;4.76;85.80
17764;BME280;22245;52.832;13.816;2023-11-19T01:00:40;101277.28;;;4.74;85.64
17764;BME280;22245;52.832;13.816;2023-11-19T01:04:04;101271.16;;;4.74;85.81
17764;BME280;22245;52.832;13.816;2023-11-19T01:07:27;101264.03;;;4.76;85.76
17764;BME280;22245;52.832;13.816;2023-11-19T01:10:49;101243.75;;;4.76;85.64
17764;BME280;22245;52.832;13.816;2023-11-19T01:14:11;101231.66;;;4.72;85.70
17764;BME280;22245;52.832;13.816;2023-11-19T01:17:32;101224.44;;;4.76;85.57
17764;BME280;22245;52.832;13.816;2023-11-19T01:20:54;101215.66;;;4.75;85.55
17764;BME280;22245;52.832;13.816;2023-11-19T01:24:17;101207.75;;;4.75;85.83
17764;BME280;22245;52.832;13.816;2023-11-19T01:27:39;101189.19;;;4.77;85.84
17764;BME280;22245;52.832;13.816;2023-11-19T01:31:00;101180.50;;;4.75;85.73
17764;BME280;22245;52.832;13.816;2023-11-19T01:34:23;101184.94;;;4.74;85.95
17764;BME280;22245;52.832;13.816;2023-11-19T01:37:45;101181.19;;;4.78;85.89
17764;BME280;22245;52.832;13.816;2023-11-19T01:41:08;101169.88;;;4.76;85.71
17764;BME280;22245;52.832;13.816;2023-11-19T01:44:29;101168.75;;;4.81;85.54
17764;BME280;22245;52.832;13.816;2023-11-19T01:47:52;101155.31;;;4.85;85.14
17764;BME280;22245;52.832;13.816;2023-11-19T01:51:16;101149.28;;;4.83;85.85
17764;BME280;22245;52.832;13.816;2023-11-19T01:54:38;101136.91;;;4.84;86.25
17764;BME280;22245;52.832;13.816;2023-11-19T01:58:01;101127.28;;;4.83;86.50
17764;BME280;22245;52.832;13.816;2023-11-19T02:01:23;101103.53;;;4.83;86.62
17764;BME280;22245;52.832;13.816;2023-11-19T02:04:45;101083.47;;;4.80;86.77
17764;BME280;22245;52.832;13.816;2023-11-19T02:08:08;101083.53;;;4.78;86.75
17764;BME280;22245;52.832;13.816;2023-11-19T02:11:30;101093.09;;;4.81;87.13
17764;BME280;22245;52.832;13.816;2023-11-19T02:14:53;101079.97;;;4.80;87.56
17764;BME280;22245;52.832;13.816;2023-11-19T02:18:19;101053.84;;;4.75;87.77
17764;BME280;22245;52.832;13.816;2023-11-19T02:21:42;101048.47;;;4.76;87.87
17764;BME280;22245;52.832;13.816;2023-11-19T02:25:06;101049.41;;;4.75;87.75
17764;BME280;22245;52.832;13.816;2023-11-19T02:28:31;101039.56;;;4.79;87.58
17764;BME280;22245;52.832;13.816;2023-11-19T02:31:53;101029.16;;;4.76;87.65
17764;BME280;22245;52.832;13.816;2023-11-19T02:35:16;101020.31;;;4.77;87.85
17764;BME280;22245;52.832;13.816;2023-11-19T02:38:38;101019.44;;;4.76;87.73
17764;BME280;22245;52.832;13.816;2023-11-19T02:41:59;101007.19;;;4.75;87.69
17764;BME280;22245;52.832;13.816;2023-11-19T02:45:23;101002.78;;;4.76;87.79
17764;BME280;22245;52.832;13.816;2023-11-19T02:48:45;100985.25;;;4.75;87.45
17764;BME280;22245;52.832;13.816;2023-11-19T02:52:07;100958.75;;;4.76;87.19
17764;BME280;22245;52.832;13.816;2023-11-19T02:55:31;100954.25;;;4.78;87.13
17764;BME280;22245;52.832;13.816;2023-11-19T02:58:59;100959.34;;;4.82;87.11
17764;BME280;22245;52.832;13.816;2023-11-19T03:02:24;100963.78;;;4.81;86.95
17764;BME280;22245;52.832;13.816;2023-11-19T03:05:54;100956.88;;;4.78;87.47
17764;BME280;22245;52.832;13.816;2023-11-19T03:09:16;100941.16;;;4.77;87.58
17764;BME280;22245;52.832;13.816;2023-11-19T03:12:38;100918.06;;;4.81;87.30
17764;BME280;22245;52.832;13.816;2023-11-19T03:16:00;100902.16;;;4.82;87.47
17764;BME280;22245;52.832;13.816;2023-11-19T03:19:24;100887.66;;;4.89;87.37
17764;BME280;22245;52.832;13.816;2023-11-19T03:22:47;100902.03;;;4.84;87.64
17764;BME280;22245;52.832;13.816;2023-11-19T03:26:10;100893.38;;;4.82;87.65
17764;BME280;22245;52.832;13.816;2023-11-19T03:29:31;100894.25;;;4.82;87.75
17764;BME280;22245;52.832;13.816;2023-11-19T03:32:54;100892.34;;;4.84;87.51
17764;BME280;22245;52.832;13.816;2023-11-19T03:36:17;100880.00;;;4.85;87.35
17764;BME280;22245;52.832;13.816;2023-11-19T03:39:38;100865.78;;;4.87;87.66
17764;BME280;22245;52.832;13.816;2023-11-19T03:43:00;100864.66;;;4.91;87.37
17764;BME280;22245;52.832;13.816;2023-11-19T03:46:22;100859.38;;;4.91;87.23
17764;BME280;22245;52.832;13.816;2023-11-19T03:49:47;100837.41;;;4.91;87.74
17764;BME280;22245;52.832;13.816;2023-11-19T03:53:12;100835.34;;;4.96;87.78
17764;BME280;22245;52.832;13.816;2023-11-19T03:56:33;100817.06;;;4.93;88.42
17764;BME280;22245;52.832;13.816;2023-11-19T03:59:55;100810.00;;;4.93;88.89
17764;BME280;22245;52.832;13.816;2023-11-19T04:03:18;100808.28;;;4.92;89.40
17764;BME280;22245;52.832;13.816;2023-11-19T04:06:41;100803.75;;;4.95;89.90
17764;BME280;22245;52.832;13.816;2023-11-19T04:10:05;100800.44;;;4.91;90.62
17764;BME280;22245;52.832;13.816;2023-11-19T04:13:27;100786.31;;;4.92;90.75
17764;BME280;22245;52.832;13.816;2023-11-19T04:16:48;100759.91;;;4.92;91.04
17764;BME280;22245;52.832;13.816;2023-11-19T04:20:11;100766.13;;;4.91;90.89
17764;BME280;22245;52.832;13.816;2023-11-19T04:23:35;100753.25;;;4.86;91.92
17764;BME280;22245;52.832;13.816;2023-11-19T04:26:58;100720.72;;;4.86;91.57
17764;BME280;22245;52.832;13.816;2023-11-19T04:30:20;100716.31;;;4.86;91.48
17764;BME280;22245;52.832;13.816;2023-11-19T04:33:43;100694.13;;;4.89;91.43
17764;BME280;22245;52.832;13.816;2023-11-19T04:37:04;100690.28;;;4.95;91.06
17764;BME280;22245;52.832;13.816;2023-11-19T04:40:30;100683.56;;;4.89;91.35
17764;BME280;22245;52.832;13.816;2023-11-19T04:43:53;100695.19;;;4.86;91.40
17764;BME280;22245;52.832;13.816;2023-11-19T04:47:15;100692.81;;;4.82;91.37
17764;BME280;22245;52.832;13.816;2023-11-19T04:50:37;100682.28;;;4.82;91.30
17764;BME280;22245;52.832;13.816;2023-11-19T04:53:58;100679.81;;;4.78;91.57
17764;BME280;22245;52.832;13.816;2023-11-19T04:57:20;100672.03;;;4.77;91.27
17764;BME280;22245;52.832;13.816;2023-11-19T05:00:43;100658.91;;;4.75;91.88
17764;BME280;22245;52.832;13.816;2023-11-19T05:04:07;100662.50;;;4.74;91.76
17764;BME280;22245;52.832;13.816;2023-11-19T05:07:29;100655.25;;;4.78;92.01
17764;BME280;22245;52.832;13.816;2023-11-19T05:10:50;100644.97;;;4.73;92.38
17764;BME280;22245;52.832;13.816;2023-11-19T05:14:12;100633.28;;;4.77;92.11
17764;BME280;22245;52.832;13.816;2023-11-19T05:17:34;100617.63;;;4.74;92.33
17764;BME280;22245;52.832;13.816;2023-11-19T05:20:57;100615.19;;;4.71;93.08
17764;BME280;22245;52.832;13.816;2023-11-19T05:24:19;100608.97;;;4.72;93.38
17764;BME280;22245;52.832;13.816;2023-11-19T05:27:40;100605.59;;;4.70;93.43
17764;BME280;22245;52.832;13.816;2023-11-19T05:31:02;100602.19;;;4.68;93.95
17764;BME280;22245;52.832;13.816;2023-11-19T05:34:25;100587.19;;;4.69;93.88
17764;BME280;22245;52.832;13.816;2023-11-19T05:37:46;100583.72;;;4.68;94.52
17764;BME280;22245;52.832;13.816;2023-11-19T05:41:10;100575.06;;;4.66;94.26
17764;BME280;22245;52.832;13.816;2023-11-19T05:44:32;100563.66;;;4.66;94.84
17764;BME280;22245;52.832;13.816;2023-11-19T05:47:55;100555.84;;;4.64;94.92
17764;BME280;22245;52.832;13.816;2023-11-19T05:51:19;100547.63;;;4.69;94.74
17764;BME280;22245;52.832;13.816;2023-11-19T05:54:40;100545.00;;;4.69;94.93
17764;BME280;22245;52.832;13.816;2023-11-19T05:58:02;100530.97;;;4.68;95.37
17764;BME280;22245;52.832;13.816;2023-11-19T06:01:24;100523.06;;;4.68;95.22
17764;BME280;22245;52.832;13.816;2023-11-19T06:04:47;100520.03;;;4.74;94.94
17764;BME280;22245;52.832;13.816;2023-11-19T06:08:10;100540.47;;;4.71;95.19
17764;BME280;22245;52.832;13.816;2023-11-19T06:11:33;100554.59;;;4.70;95.77
17764;BME280;22245;52.832;13.816;2023-11-19T06:14:56;100544.25;;;4.67;96.15
17764;BME280;22245;52.832;13.816;2023-11-19T06:18:18;100539.84;;;4.67;96.49
17764;BME280;22245;52.832;13.816;2023-11-19T06:21:41;100538.13;;;4.66;96.93
17764;BME280;22245;52.832;13.816;2023-11-19T06:25:04;100528.22;;;4.70;97.16
17764;BME280;22245;52.832;13.816;2023-11-19T06:28:27;100499.41;;;4.67;96.96
17764;BME280;22245;52.832;13.816;2023-11-19T06:31:49;100509.88;;;4.68;97.27
17764;BME280;22245;52.832;13.816;2023-11-19T06:35:11;100506.28;;;4.69;97.54
17764;BME280;22245;52.832;13.816;2023-11-19T06:38:34;100495.72;;;4.69;97.77
17764;BME280;22245;52.832;13.816;2023-11-19T06:41:57;100482.25;;;4.74;98.12
17764;BME280;22245;52.832;13.816;2023-11-19T06:45:19;100452.38;;;4.73;98.40
17764;BME280;22245;52.832;13.816;2023-11-19T06:48:40;100432.00;;;4.75;98.31
17764;BME280;22245;52.832;13.816;2023-11-19T06:52:04;100425.78;;;4.76;98.62
17764;BME280;22245;52.832;13.816;2023-11-19T06:55:26;100437.09;;;4.78;98.87
17764;BME280;22245;52.832;13.816;2023-11-19T06:58:50;100442.47;;;4.77;98.90
17764;BME280;22245;52.832;13.816;2023-11-19T07:02:12;100445.94;;;4.77;99.08
17764;BME280;22245;52.832;13.816;2023-11-19T07:05:35;100443.09;;;4.81;98.85
17764;BME280;22245;52.832;13.816;2023-11-19T07:08:58;100456.84;;;4.86;99.19
17764;BME280;22245;52.832;13.816;2023-11-19T07:12:19;100447.88;;;4.88;98.95
17764;BME280;22245;52.832;13.816;2023-11-19T07:15:43;100442.31;;;4.93;99.20
17764;BME280;22245;52.832;13.816;2023-11-19T07:19:04;100452.88;;;4.93;99.48
17764;BME280;22245;52.832;13.816;2023-11-19T07:22:26;100448.41;;;4.93;99.66
17764;BME280;22245;52.832;13.816;2023-11-19T07:25:50;100448.41;;;4.93;100.00
17764;BME280;22245;52.832;13.816;2023-11-19T07:29:13;100446.81;;;4.91;100.00
17764;BME280;22245;52.832;13.816;2023-11-19T07:32:50;100447.59;;;4.93;100.00
17764;BME280;22245;52.832;13.816;2023-11-19T07:36:12;100439.25;;;4.99;100.00
17764;BME280;22245;52.832;13.816;2023-11-19T07:39:33;100449.69;;;5.01;100.00
17764;BME280;22245;52.832;13.816;2023-11-19T07:42:56;100453.19;;;5.01;100.00
17764;BME280;22245;52.832;13.816;2023-11-19T07:46:18;100457.41;;;5.04;100.00
17764;BME280;22245;52.832;13.816;2023-11-19T07:49:41;100432.72;;;5.05;100.00
17764;BME280;22245;52.832;13.816;2023-11-19T07:53:05;100426.38;;;5.07;100.00
17764;BME280;22245;52.832;13.816;2023-11-19T07:56:26;100424.50;;;5.10;100.00
17764;BME280;22245;52.832;13.816;2023-11-19T07:59:48;100424.50;;;5.10;100.00
17764;BME280;22245;52.832;13.816;2023-11-19T08:03:10;100432.28;;;5.11;100.00
17764;BME280;22245;52.832;13.816;2023-11-19T08:06:33;100440.13;;;5.13;100.00
17764;BME280;22245;52.832;13.816;2023-11-19T08:09:55;100433.25;;;5.10;100.00
17764;BME280;22245;52.832;13.816;2023-11-19T08:13:17;100432.09;;;5.14;100.00
17764;BME280;22245;52.832;13.816;2023-11-19T08:16:41;100423.31;;;5.14;100.00
17764;BME280;22245;52.832;13.816;2023-11-19T08:20:02;100432.09;;;5.14;100.00
17764;BME280;22245;52.832;13.816;2023-11-19T08:23:27;100428.53;;;5.15;100.00
17764;BME280;22245;52.832;13.816;2023-11-19T08:26:49;100417.84;;;5.17;100.00
17764;BME280;22245;52.832;13.816;2023-11-19T08:30:22;100419.31;;;5.21;100.00
17764;BME280;22245;52.832;13.816;2023-11-19T08:33:44;100397.25;;;5.22;100.00
17764;BME280;22245;52.832;13.816;2023-11-19T08:37:05;100393.03;;;5.19;100.00
17764;BME280;22245;52.832;13.816;2023-11-19T08:40:28;100392.69;;;5.24;100.00
17764;BME280;22245;52.832;13.816;2023-11-19T08:43:50;100393.22;;;5.29;100.00
17764;BME280;22245;52.832;13.816;2023-11-19T08:47:13;100390.50;;;5.31;100.00
17764;BME280;22245;52.832;13.816;2023-11-19T08:50:36;100382.88;;;5.39;100.00
17764;BME280;22245;52.832;13.816;2023-11-19T08:53:57;100367.78;;;5.41;100.00
17764;BME280;22245;52.832;13.816;2023-11-19T08:57:20;100362.41;;;5.43;100.00
17764;BME280;22245;52.832;13.816;2023-11-19T09:00:42;100361.09;;;5.48;100.00
17764;BME280;22245;52.832;13.816;2023-11-19T09:04:04;100362.06;;;5.47;100.00
17764;BME280;22245;52.832;13.816;2023-11-19T09:07:26;100365.47;;;5.49;100.00
17764;BME280;22245;52.832;13.816;2023-11-19T09:10:48;100375.47;;;5.57;100.00
17764;BME280;22245;52.832;13.816;2023-11-19T09:14:11;100369.22;;;5.58;100.00
17764;BME280;22245;52.832;13.816;2023-11-19T09:17:33;100368.19;;;5.61;100.00
17764;BME280;22245;52.832;13.816;2023-11-19T09:20:55;100378.41;;;5.65;100.00
17764;BME280;22245;52.832;13.816;2023-11-19T09:24:17;100369.34;;;5.70;100.00
17764;BME280;22245;52.832;13.816;2023-11-19T09:27:39;100374.19;;;5.76;100.00
17764;BME280;22245;52.832;13.816;2023-11-19T09:31:02;100354.28;;;5.83;100.00
17764;BME280;22245;52.832;13.816;2023-11-19T09:34:25;100353.03;;;5.89;100.00
17764;BME280;22245;52.832;13.816;2023-11-19T09:37:46;100355.31;;;5.93;100.00
17764;BME280;22245;52.832;13.816;2023-11-19T09:41:09;100351.50;;;5.98;100.00
17764;BME280;22245;52.832;13.816;2023-11-19T09:44:33;100344.09;;;6.03;100.00
17764;BME280;22245;52.832;13.816;2023-11-19T09:47:57;100340.69;;;6.14;100.00
17764;BME280;22245;52.832;13.816;2023-11-19T09:51:19;100330.09;;;6.14;100.00
17764;BME280;22245;52.832;13.816;2023-11-19T09:54:40;100327.34;;;6.15;100.00
17764;BME280;22245;52.832;13.816;2023-11-19T09:58:02;100309.34;;;6.20;100.00
17764;BME280;22245;52.832;13.816;2023-11-19T10:01:24;100318.41;;;6.29;100.00
17764;BME280;22245;52.832;13.816;2023-11-19T10:04:51;100310.00;;;6.35;100.00
17764;BME280;22245;52.832;13.816;2023-11-19T10:08:13;100318.13;;;6.45;100.00
17764;BME280;22245;52.832;13.816;2023-11-19T10:11:37;100304.53;;;6.50;100.00
17764;BME280;22245;52.832;13.816;2023-11-19T10:14:59;100303.94;;;6.58;100.00
17764;BME280;22245;52.832;13.816;2023-11-19T10:18:24;100292.78;;;6.65;100.00
17764;BME280;22245;52.832;13.816;2023-11-19T10:21:47;100282.09;;;6.78;100.00
17764;BME280;22245;52.832;13.816;2023-11-19T10:25:21;100282.22;;;6.88;100.00
17764;BME280;22245;52.832;13.816;2023-11-19T10:28:43;100295.59;;;6.98;100.00
17764;BME280;22245;52.832;13.816;2023-11-19T10:32:06;100282.50;;;7.08;100.00
17764;BME280;22245;52.832;13.816;2023-11-19T10:35:56;100287.91;;;7.18;100.00
17764;BME280;22245;52.832;13.816;2023-11-19T10:39:23;100275.75;;;7.27;100.00
17764;BME280;22245;52.832;13.816;2023-11-19T10:42:45;100269.50;;;7.39;100.00
17764;BME280;22245;52.832;13.816;2023-11-19T10:46:09;100258.25;;;7.47;100.00
17764;BME280;22245;52.832;13.816;2023-11-19T10:49:32;100260.66;;;7.61;100.00
17764;BME280;22245;52.832;13.816;2023-11-19T10:52:56;100253.66;;;7.72;100.00
17764;BME280;22245;52.832;13.816;2023-11-19T10:56:23;100245.66;;;7.83;100.00
17764;BME280;22245;52.832;13.816;2023-11-19T10:59:47;100246.56;;;7.93;100.00
17764;BME280;22245;52.832;13.816;2023-11-19T11:03:15;100246.41;;;8.06;100.00
17764;BME280;22245;52.832;13.816;2023-11-19T11:06:38;100242.03;;;8.17;100.00
17764;BME280;22245;52.832;13.816;2023-11-19T11:10:00;100237.91;;;8.24;100.00
17764;BME280;22245;52.832;13.816;2023-11-19T11:13:25;100244.09;;;8.34;100.00
17764;BME280;22245;52.832;13.816;2023-11-19T11:16:49;100236.94;;;8.46;100.00
17764;BME280;22245;52.832;13.816;2023-11-19T11:20:11;100232.56;;;8.57;100.00
17764;BME280;22245;52.832;13.816;2023-11-19T11:23:44;100235.13;;;8.68;100.00
17764;BME280;22245;52.832;13.816;2023-11-19T11:27:43;100229.59;;;8.81;100.00
17764;BME280;22245;52.832;13.816;2023-11-19T11:31:30;100223.38;;;8.92;100.00
17764;BME280;22245;52.832;13.816;2023-11-19T11:35:15;100220.59;;;9.03;100.00
17764;BME280;22245;52.832;13.816;2023-11-19T11:38:41;100221.63;;;9.12;100.00
17764;BME280;22245;52.832;13.816;2023-11-19T11:42:31;100214.53;;;9.22;100.00
17764;BME280;22245;52.832;13.816;2023-11-19T11:45:53;100211.91;;;9.32;100.00
17764;BME280;22245;52.832;13.816;2023-11-19T11:49:25;100202.81;;;9.45;100.00
17764;BME280;22245;52.832;13.816;2023-11-19T11:53:13;100213.75;;;9.51;100.00
17764;BME280;22245;52.832;13.816;2023-11-19T11:56:37;100210.16;;;9.62;100.00
17764;BME280;22245;52.832;13.816;2023-11-19T12:00:02;100202.47;;;9.69;100.00
17764;BME280;22245;52.832;13.816;2023-11-19T12:03:28;100196.44;;;9.77;100.00
17764;BME280;22245;52.832;13.816;2023-11-19T12:07:04;100190.28;;;9.86;100.00
17764;BME280;22245;52.832;13.816;2023-11-19T12:10:28;100188.47;;;9.96;100.00
17764;BME280;22245;52.832;13.816;2023-11-19T12:13:53;100198.25;;;10.06;100.00
17764;BME280;22245;52.832;13.816;2023-11-19T12:17:41;100205.09;;;10.18;100.00
17764;BME280;22245;52.832;13.816;2023-11-19T12:21:05;100203.56;;;10.25;100.00
17764;BME280;22245;52.832;13.816;2023-11-19T12:24:31;100205.66;;;10.32;100.00
17764;BME280;22245;52.832;13.816;2023-11-19T12:27:53;100198.66;;;10.40;100.00
17764;BME280;22245;52.832;13.816;2023-11-19T12:31:15;100204.81;;;10.41;100.00
17764;BME280;22245;52.832;13.816;2023-11-19T12:34:38;100209.56;;;10.47;100.00
17764;BME280;22245;52.832;13.816;2023-11-19T12:37:59;100199.88;;;10.56;100.00
17764;BME280;22245;52.832;13.816;2023-11-19T12:41:22;100206.88;;;10.57;100.00
17764;BME280;22245;52.832;13.816;2023-11-19T12:44:54;100210.13;;;10.61;100.00
17764;BME280;22245;52.832;13.816;2023-11-19T12:48:16;100210.13;;;10.61;100.00
17764;BME280;22245;52.832;13.816;2023-11-19T12:51:38;100210.34;;;10.67;100.00
17764;BME280;22245;52.832;13.816;2023-11-19T12:54:59;100206.88;;;10.67;100.00
17764;BME280;22245;52.832;13.816;2023-11-19T12:58:30;100203.91;;;10.70;100.00
17764;BME280;22245;52.832;13.816;2023-11-19T13:01:55;100198.28;;;10.73;100.00
17764;BME280;22245;52.832;13.816;2023-11-19T13:05:27;100202.34;;;10.77;100.00
17764;BME280;22245;52.832;13.816;2023-11-19T13:08:51;100192.09;;;10.82;100.00
17764;BME280;22245;52.832;13.816;2023-11-19T13:12:15;100201.31;;;10.88;100.00
17764;BME280;22245;52.832;13.816;2023-11-19T13:15:38;100200.88;;;10.93;100.00
17764;BME280;22245;52.832;13.816;2023-11-19T13:19:00;100195.41;;;10.94;100.00
17764;BME280;22245;52.832;13.816;2023-11-19T13:22:23;100201.13;;;10.99;100.00
17764;BME280;22245;52.832;13.816;2023-11-19T13:25:44;100196.66;;;11.00;100.00
17764;BME280;22245;52.832;13.816;2023-11-19T13:29:06;100199.84;;;11.04;100.00
17764;BME280;22245;52.832;13.816;2023-11-19T13:32:29;100199.72;;;11.05;100.00
17764;BME280;22245;52.832;13.816;2023-11-19T13:35:51;100194.09;;;11.08;100.00
17764;BME280;22245;52.832;13.816;2023-11-19T13:39:13;100186.22;;;11.07;100.00
17764;BME280;22245;52.832;13.816;2023-11-19T13:42:44;100198.56;;;11.08;100.00
17764;BME280;22245;52.832;13.816;2023-11-19T13:46:06;100194.09;;;11.08;100.00
17764;BME280;22245;52.832;13.816;2023-11-19T13:49:32;100193.63;;;11.13;100.00
17764;BME280;22245;52.832;13.816;2023-11-19T13:52:53;100191.50;;;11.17;98.82
17764;BME280;22245;52.832;13.816;2023-11-19T13:56:15;100198.94;;;11.13;98.78
17764;BME280;22245;52.832;13.816;2023-11-19T13:59:39;100199.41;;;11.08;98.41
17764;BME280;22245;52.832;13.816;2023-11-19T14:03:02;100201.22;;;11.08;98.49
17764;BME280;22245;52.832;13.816;2023-11-19T14:06:25;100201.91;;;11.10;97.45
17764;BME280;22245;52.832;13.816;2023-11-19T14:09:46;100208.41;;;11.07;98.39
17764;BME280;22245;52.832;13.816;2023-11-19T14:13:08;100207.53;;;11.07;97.81
17764;BME280;22245;52.832;13.816;2023-11-19T14:16:30;100200.22;;;11.09;97.58
17764;BME280;22245;52.832;13.816;2023-11-19T14:19:53;100202.75;;;11.10;97.52
17764;BME280;22245;52.832;13.816;2023-11-19T14:23:16;100206.56;;;11.08;97.49
17764;BME280;22245;52.832;13.816;2023-11-19T14:26:38;100217.06;;;11.09;98.27
17764;BME280;22245;52.832;13.816;2023-11-19T14:29:59;100220.13;;;11.14;97.51
17764;BME280;22245;52.832;13.816;2023-11-19T14:33:21;100213.25;;;11.12;97.75
17764;BME280;22245;52.832;13.816;2023-11-19T14:36:43;100220.13;;;11.14;97.23
17764;BME280;22245;52.832;13.816;2023-11-19T14:40:07;100222.25;;;11.11;97.26
17764;BME280;22245;52.832;13.816;2023-11-19T14:43:32;100220.13;;;11.14;97.19
17764;BME280;22245;52.832;13.816;2023-11-19T14:46:53;100230.09;;;11.12;97.27
17764;BME280;22245;52.832;13.816;2023-11-19T14:50:15;100219.06;;;11.07;97.74
17764;BME280;22245;52.832;13.816;2023-11-19T14:53:36;100219.06;;;11.07;97.49
17764;BME280;22245;52.832;13.816;2023-11-19T14:56:59;100222.41;;;11.09;96.37
17764;BME280;22245;52.832;13.816;2023-11-19T15:00:20;100228.34;;;11.03;97.78
17764;BME280;22245;52.832;13.816;2023-11-19T15:03:42;100227.34;;;11.04;97.31
17764;BME280;22245;52.832;13.816;2023-11-19T15:07:06;100246.00;;;11.04;97.31
17764;BME280;22245;52.832;13.816;2023-11-19T15:10:27;100237.31;;;11.02;97.17
17764;BME280;22245;52.832;13.816;2023-11-19T15:13:50;100246.28;;;11.01;97.49
17764;BME280;22245;52.832;13.816;2023-11-19T15:17:12;100240.97;;;11.01;97.91
17764;BME280;22245;52.832;13.816;2023-11-19T15:20:33;100242.63;;;11.02;97.21
17764;BME280;22245;52.832;13.816;2023-11-19T15:23:55;100238.00;;;11.04;97.33
17764;BME280;22245;52.832;13.816;2023-11-19T15:27:17;100255.50;;;11.07;96.78
17764;BME280;22245;52.832;13.816;2023-11-19T15:30:40;100251.31;;;11.04;96.50
17764;BME280;22245;52.832;13.816;2023-11-19T15:34:02;100244.16;;;11.05;97.29
17764;BME280;22245;52.832;13.816;2023-11-19T15:37:24;100240.50;;;11.06;96.76
17764;BME280;22245;52.832;13.816;2023-11-19T15:40:46;100247.38;;;11.08;96.55
17764;BME280;22245;52.832;13.816;2023-11-19T15:44:07;100248.78;;;11.03;96.86
17764;BME280;22245;52.832;13.816;2023-11-19T15:47:30;100249.50;;;11.05;96.88
17764;BME280;22245;52.832;13.816;2023-11-19T15:50:52;100254.81;;;11.05;96.31
17764;BME280;22245;52.832;13.816;2023-11-19T15:54:14;100246.81;;;11.05;96.27
17764;BME280;22245;52.832;13.816;2023-11-19T15:57:35;100254.28;;;11.01;96.86
17764;BME280;22245;52.832;13.816;2023-11-19T16:00:57;100254.13;;;11.03;96.11
17764;BME280;22245;52.832;13.816;2023-11-19T16:04:22;100271.94;;;11.02;95.58
17764;BME280;22245;52.832;13.816;2023-11-19T16:07:44;100262.84;;;10.95;96.81
17764;BME280;22245;52.832;13.816;2023-11-19T16:11:06;100264.81;;;10.93;97.02
17764;BME280;22245;52.832;13.816;2023-11-19T16:14:30;100277.84;;;10.96;96.28
17764;BME280;22245;52.832;13.816;2023-11-19T16:17:51;100275.75;;;10.90;96.09
17764;BME280;22245;52.832;13.816;2023-11-19T16:21:16;100274.09;;;10.89;96.66
17764;BME280;22245;52.832;13.816;2023-11-19T16:24:38;100280.25;;;10.89;96.78
17764;BME280;22245;52.832;13.816;2023-11-19T16:28:00;100277.72;;;10.88;96.38
17764;BME280;22245;52.832;13.816;2023-11-19T16:31:21;100280.25;;;10.89;96.25
17764;BME280;22245;52.832;13.816;2023-11-19T16:34:43;100290.06;;;10.89;97.00
17764;BME280;22245;52.832;13.816;2023-11-19T16:38:09;100283.63;;;10.91;96.78
17764;BME280;22245;52.832;13.816;2023-11-19T16:41:31;100288.09;;;10.91;96.72
17764;BME280;22245;52.832;13.816;2023-11-19T16:45:02;100284.59;;;10.90;97.09
17764;BME280;22245;52.832;13.816;2023-11-19T16:48:23;100294.81;;;10.95;96.27
17764;BME280;22245;52.832;13.816;2023-11-19T16:51:46;100287.09;;;10.92;96.19
17764;BME280;22245;52.832;13.816;2023-11-19T16:55:09;100288.94;;;10.91;96.39
17764;BME280;22245;52.832;13.816;2023-11-19T16:58:32;100291.75;;;10.90;96.62
17764;BME280;22245;52.832;13.816;2023-11-19T17:01:53;100291.63;;;10.91;96.31
17764;BME280;22245;52.832;13.816;2023-11-19T17:05:15;100297.75;;;10.92;96.71
17764;BME280;22245;52.832;13.816;2023-11-19T17:08:37;100292.31;;;10.93;96.64
17764;BME280;22245;52.832;13.816;2023-11-19T17:12:00;100294.28;;;10.91;96.39
17764;BME280;22245;52.832;13.816;2023-11-19T17:15:22;100298.06;;;10.89;96.76
17764;BME280;22245;52.832;13.816;2023-11-19T17:18:43;100304.06;;;10.91;97.18
17764;BME280;22245;52.832;13.816;2023-11-19T17:22:05;100300.72;;;10.89;97.92
17764;BME280;22245;52.832;13.816;2023-11-19T17:25:26;100299.03;;;10.88;98.35
17764;BME280;22245;52.832;13.816;2023-11-19T17:28:49;100308.03;;;10.86;98.83
17764;BME280;22245;52.832;13.816;2023-11-19T17:32:11;100293.31;;;10.82;99.33
17764;BME280;22245;52.832;13.816;2023-11-19T17:35:32;100295.97;;;10.82;99.17